Swisher, IA

8:15 AM CDT on June 28, 2017 (GMT -0500)
Cedar Ridge | | Change Station
Active Advisory: Special Statement

Elev 823 ft 41.89 °N, 91.66 °W | Updated 3 minutes ago

Rain
Rain
63.2 °F
Feels Like 63.2 °F
N
15.7
Wind Variable Wind from South

Today
High -- | Low -- °F
--% Chance of Precip.
Yesterday
High -- | Low -- °F
Precip. -- in
Pressure 29.82 in
Visibility 7.0 miles
Clouds Few 600 ft
Mostly Cloudy 6000 ft
Overcast 11000 ft
Dew Point 61 °F
Humidity 93%
Rainfall 0.85 in
Snow Depth Not available.
5:34 AM 8:45 PM
Waxing Crescent, 25% visible
METAR KCID 281252Z 14011G17KT 7SM FEW006 BKN060 OVC110 18/18 A2983 RMK AO2 LTG DSNT E AND SE RAE29 PRESFR SLP096 P0004 T01830183
Pressure 29.82 in
Visibility 7.0 miles
Clouds Few 600 ft
Mostly Cloudy 6000 ft
Overcast 11000 ft
Dew Point 61 °F
Humidity 93%
Rainfall 0.85 in
Snow Depth Not available.
5:34 AM 8:45 PM
Waxing Crescent, 25% visible
METAR KCID 281252Z 14011G17KT 7SM FEW006 BKN060 OVC110 18/18 A2983 RMK AO2 LTG DSNT E AND SE RAE29 PRESFR SLP096 P0004 T01830183

Get Your Daily Forecast Email!

Thanks for signing up!

Be on the lookout for a verification email in your inbox.

You'll start receiving severe weather alerts in your inbox..

×

10-Day Weather Forecast

Almanac

Astronomy

Jun. 28, 2017 Rise Set
Actual Time
Civil Twilight
Nautical Twilight
Astronomical Twilight
Moon
Length of Visible Light
Length of Day
Tomorrow will be .
, % of the Moon is Illuminated

Today's Extremes

State Highs State Lows

Community

WunderPhotos

Category 6

Welcome to Category 6. This is the collective home for Weather Underground's featured writeups by Dr. Jeff Masters (right), Bob Henson (left), Chris Burt, and other regular contributors.

Nearby

Air Quality

  Air Quality AQ Index Pollutant
Not available.

Snow Depth

Station Depth Elevation

Earthquake Activity

City Distance Mag. Time & Date
Minimum magnitude displayed is 2.5.

Coastal Water Temperatures

Place Temperature

Stations

Nearby Weather Stations

Station Location Temp. Windchill Dew Point Humidity Wind Precip. Elev Updated Type
                   

Watches & Warnings

Special Statement
Issued: 7:16 AM CDT Jun. 28, 2017 – National Weather Service

... Thunderstorms with considerable lightning...

Strong thunderstorms will move across the area through mid
morning. These storms will produce considerable lightning,
periods of heavy rain and possibly small hail.

When thunderstorms are occurring, move indoors. Do not stand by
windows. Avoid using telephones and electrical appliances until
the storm has passed.